Marshalltown, Iowa
Current Conditions -  °F | °C
As of 1:53 PM on Wednesday 17 Dec 2014 (Local Time) from KMIW Reporting Station
Clear Clear  
Wind Chill: 17°   Ceiling: Unl
Heat Index: 25°   Visibility: 10mi
Dew Point: 15°   Wind: 7mph
Humidity: 66%   Direction: 320°NW
Pressure: 30.26"   Gusts: NA
Location:  42.05°N, 92.91°W
Report Text: KMIW 171953Z AUTO 32006KT 10SM CLR M04/M09 A3026 RMK AO2 SLP263 T10391094
Loading
Personal Weather Stations






























Interactive Weather Map New forecast layout! Learn more

10-Day Weather Forecast

Advertisements
Track Severe Weather on mobile